Time;durP1;ratioP1;P1;durP2;ratioP2;P2;SDS_P1;SDS_P2;PMS_P1;PMS_P2;Temp;Humidity;BMP_temperature;BMP_pressure;BME280_temperature;BME280_humidity;BME280_pressure;Samples;Min_cycle;Max_cycle;Signal;HPM_P1;HPM_P2
2021/08/26 00:00:29;;;;;;;;;16.50;16.50;;;;;;;;5081194;28;46840;-76
2021/08/26 00:05:51;;;;;;;;;14.25;14.25;;;;;;;;5081098;28;47014;-76
2021/08/26 00:08:17;;;;;;;;;15.00;14.25;;;;;;;;5080924;28;47762;-76
2021/08/26 00:10:43;;;;;;;;;18.50;17.75;;;;;;;;5062322;28;46928;-76
2021/08/26 00:13:09;;;;;;;;;21.25;15.00;;;;;;;;5080749;28;47066;-76
2021/08/26 00:15:35;;;;;;;;;18.00;16.00;;;;;;;;5080809;28;47049;-77
2021/08/26 00:18:00;;;;;;;;;20.50;17.50;;;;;;;;5080726;28;47245;-76
2021/08/26 00:20:26;;;;;;;;;16.25;15.00;;;;;;;;5080176;28;46767;-76
2021/08/26 00:22:52;;;;;;;;;17.25;14.00;;;;;;;;5080669;28;47053;-76
2021/08/26 00:25:18;;;;;;;;;18.25;16.50;;;;;;;;5079917;28;46807;-76
2021/08/26 00:27:43;;;;;;;;;18.25;16.25;;;;;;;;5068180;28;47038;-76
2021/08/26 00:30:09;;;;;;;;;18.00;16.00;;;;;;;;5080491;28;46814;-76
2021/08/26 00:32:34;;;;;;;;;18.75;17.00;;;;;;;;5080487;28;47096;-76
2021/08/26 00:34:59;;;;;;;;;17.50;15.50;;;;;;;;5061779;28;46981;-76
2021/08/26 00:37:25;;;;;;;;;19.50;19.00;;;;;;;;5080527;28;47851;-76
2021/08/26 00:39:50;;;;;;;;;20.00;18.25;;;;;;;;5080198;28;46920;-76
2021/08/26 00:42:15;;;;;;;;;23.75;19.25;;;;;;;;5080389;28;47027;-76
2021/08/26 00:44:40;;;;;;;;;19.00;17.75;;;;;;;;5062107;28;47141;-76
2021/08/26 00:47:08;;;;;;;;;20.50;18.75;;;;;;;;5080141;28;47971;-76
2021/08/26 00:49:33;;;;;;;;;21.00;16.25;;;;;;;;5079813;28;47000;-77
2021/08/26 00:51:58;;;;;;;;;17.00;16.25;;;;;;;;5080387;28;47133;-76
2021/08/26 00:54:24;;;;;;;;;16.50;15.75;;;;;;;;5080364;28;47207;-76
2021/08/26 00:56:49;;;;;;;;;16.00;14.75;;;;;;;;5080131;28;47889;-76
2021/08/26 00:59:15;;;;;;;;;20.25;17.50;;;;;;;;5079797;28;46880;-76
2021/08/26 01:01:45;;;;;;;;;15.25;13.25;;;;;;;;5080308;28;46867;-76
2021/08/26 01:04:26;;;;;;;;;21.50;19.75;;;;;;;;5080019;28;47155;-76
2021/08/26 01:06:57;;;;;;;;;17.75;14.25;;;;;;;;5079818;28;46980;-76
2021/08/26 01:09:26;;;;;;;;;19.00;16.00;;;;;;;;5079846;28;47214;-76
2021/08/26 01:11:53;;;;;;;;;15.50;13.00;;;;;;;;5079811;28;46921;-76
2021/08/26 01:14:18;;;;;;;;;17.25;13.50;;;;;;;;5079745;28;47233;-76
2021/08/26 01:16:44;;;;;;;;;13.75;12.75;;;;;;;;5061195;28;47405;-77
2021/08/26 01:19:09;;;;;;;;;15.25;11.25;;;;;;;;5079242;28;47033;-76
2021/08/26 01:21:34;;;;;;;;;13.00;12.25;;;;;;;;5079098;28;47072;-76
2021/08/26 01:24:02;;;;;;;;;11.50;11.00;;;;;;;;5079830;28;47127;-76
2021/08/26 01:26:30;;;;;;;;;11.50;11.25;;;;;;;;5050627;28;48328;-77
2021/08/26 01:28:57;;;;;;;;;14.25;10.25;;;;;;;;5077164;28;46985;-76
2021/08/26 01:31:23;;;;;;;;;11.75;10.25;;;;;;;;5061296;28;46955;-77
2021/08/26 01:33:57;;;;;;;;;10.25;9.75;;;;;;;;5060980;28;46893;-77
2021/08/26 01:36:33;;;;;;;;;7.50;6.25;;;;;;;;5079154;28;48126;-76
2021/08/26 01:39:09;;;;;;;;;9.75;9.25;;;;;;;;5061048;28;47014;-76
2021/08/26 01:41:42;;;;;;;;;7.25;7.25;;;;;;;;5060987;28;47089;-76
2021/08/26 01:44:08;;;;;;;;;9.50;7.50;;;;;;;;5061093;28;46992;-76
2021/08/26 01:46:34;;;;;;;;;10.75;9.00;;;;;;;;5079100;28;47074;-76
2021/08/26 01:48:59;;;;;;;;;11.75;10.00;;;;;;;;5079009;28;47057;-76
2021/08/26 01:51:24;;;;;;;;;12.25;10.00;;;;;;;;5079054;28;47219;-76
2021/08/26 01:53:50;;;;;;;;;10.00;10.00;;;;;;;;5079314;28;46911;-76
2021/08/26 01:56:15;;;;;;;;;9.00;9.00;;;;;;;;5078893;28;47312;-76
2021/08/26 01:58:41;;;;;;;;;8.00;8.00;;;;;;;;5078976;28;46964;-77
2021/08/26 02:01:07;;;;;;;;;7.50;6.25;;;;;;;;5079048;28;47103;-76
2021/08/26 02:03:32;;;;;;;;;10.00;7.75;;;;;;;;5079338;28;47171;-77
2021/08/26 02:05:58;;;;;;;;;8.50;7.00;;;;;;;;5060317;28;47220;-77
2021/08/26 02:08:23;;;;;;;;;9.50;7.50;;;;;;;;5078929;28;46956;-76
2021/08/26 02:10:48;;;;;;;;;11.25;9.50;;;;;;;;5079070;28;46970;-77
2021/08/26 02:13:13;;;;;;;;;10.00;9.00;;;;;;;;5078709;28;46899;-76
2021/08/26 02:15:39;;;;;;;;;10.00;9.00;;;;;;;;5078535;28;46983;-77
2021/08/26 02:18:04;;;;;;;;;10.75;8.00;;;;;;;;5078808;28;46731;-77
2021/08/26 02:20:29;;;;;;;;;10.50;8.75;;;;;;;;5078358;28;46904;-77
2021/08/26 02:22:55;;;;;;;;;9.25;9.00;;;;;;;;5079180;28;47002;-77
2021/08/26 02:25:20;;;;;;;;;6.75;6.00;;;;;;;;5059065;28;48218;-76
2021/08/26 02:27:45;;;;;;;;;11.00;8.00;;;;;;;;5066961;28;46905;-77
2021/08/26 02:30:11;;;;;;;;;13.00;8.00;;;;;;;;5078571;28;47037;-77
2021/08/26 02:32:36;;;;;;;;;10.25;8.50;;;;;;;;5077967;28;47331;-76
2021/08/26 02:35:02;;;;;;;;;10.00;10.00;;;;;;;;5059605;28;49561;-76
2021/08/26 02:37:27;;;;;;;;;11.00;9.50;;;;;;;;5078578;28;46863;-76
2021/08/26 02:39:53;;;;;;;;;6.25;6.00;;;;;;;;5078627;28;46716;-76
2021/08/26 02:42:18;;;;;;;;;10.50;7.75;;;;;;;;5078489;28;46795;-76
2021/08/26 02:44:43;;;;;;;;;11.00;8.75;;;;;;;;5078402;28;48019;-76
2021/08/26 02:47:09;;;;;;;;;6.25;6.25;;;;;;;;5060126;28;46938;-76
2021/08/26 02:49:34;;;;;;;;;7.50;6.00;;;;;;;;5078121;28;46849;-76
2021/08/26 02:51:59;;;;;;;;;13.75;10.25;;;;;;;;5078461;28;47025;-76
2021/08/26 02:54:24;;;;;;;;;11.00;9.25;;;;;;;;5078044;28;47808;-76
2021/08/26 02:56:50;;;;;;;;;11.50;8.25;;;;;;;;5078299;28;46954;-76
2021/08/26 02:59:15;;;;;;;;;11.50;9.50;;;;;;;;5078022;28;46955;-76
2021/08/26 03:01:40;;;;;;;;;12.25;10.25;;;;;;;;5078690;28;46876;-76
2021/08/26 03:04:06;;;;;;;;;10.00;7.00;;;;;;;;5077817;28;47936;-76
2021/08/26 03:06:31;;;;;;;;;12.25;10.00;;;;;;;;5078186;28;46827;-76
2021/08/26 03:08:56;;;;;;;;;9.50;8.75;;;;;;;;5078058;28;46978;-76
2021/08/26 03:11:22;;;;;;;;;8.00;7.00;;;;;;;;5078229;28;46908;-76
2021/08/26 03:13:47;;;;;;;;;12.25;10.75;;;;;;;;5059387;28;48492;-76
2021/08/26 03:16:12;;;;;;;;;16.75;10.75;;;;;;;;5077614;28;47031;-76
2021/08/26 03:18:38;;;;;;;;;12.25;10.75;;;;;;;;5078028;28;47066;-76
2021/08/26 03:21:03;;;;;;;;;9.00;9.00;;;;;;;;5077823;28;46860;-76
2021/08/26 03:23:28;;;;;;;;;10.50;9.00;;;;;;;;5077817;28;46972;-76
2021/08/26 03:25:54;;;;;;;;;13.00;10.00;;;;;;;;5077586;28;46994;-76
2021/08/26 03:28:20;;;;;;;;;8.00;8.00;;;;;;;;5077781;28;46802;-76
2021/08/26 03:30:46;;;;;;;;;11.50;9.00;;;;;;;;5077869;28;47026;-76
2021/08/26 03:33:11;;;;;;;;;7.00;6.00;;;;;;;;5059276;28;49395;-76
2021/08/26 03:35:37;;;;;;;;;9.00;9.00;;;;;;;;5077332;28;46730;-76
2021/08/26 03:38:02;;;;;;;;;9.50;7.00;;;;;;;;5077810;28;46860;-76
2021/08/26 03:40:27;;;;;;;;;11.25;8.25;;;;;;;;5059497;28;46905;-76
2021/08/26 03:42:53;;;;;;;;;10.50;9.00;;;;;;;;5077566;28;47802;-76
2021/08/26 03:45:18;;;;;;;;;12.00;9.00;;;;;;;;5079781;28;46786;-76
2021/08/26 03:47:44;;;;;;;;;7.00;6.50;;;;;;;;5081147;28;47085;-76
2021/08/26 03:50:09;;;;;;;;;10.00;8.00;;;;;;;;5080993;28;47030;-76
2021/08/26 03:52:34;;;;;;;;;8.25;6.25;;;;;;;;5080989;28;47034;-76
2021/08/26 03:54:59;;;;;;;;;8.25;8.00;;;;;;;;5080784;28;46923;-76
2021/08/26 03:57:25;;;;;;;;;5.50;5.50;;;;;;;;5080897;28;46964;-76
2021/08/26 03:59:50;;;;;;;;;9.00;7.25;;;;;;;;5081015;28;46998;-76
2021/08/26 04:02:15;;;;;;;;;8.00;6.00;;;;;;;;5080747;28;47126;-76
2021/08/26 04:04:41;;;;;;;;;9.00;8.75;;;;;;;;5080338;28;47192;-76
2021/08/26 04:07:06;;;;;;;;;7.50;6.00;;;;;;;;5080868;28;46950;-76
2021/08/26 04:09:31;;;;;;;;;7.00;6.00;;;;;;;;5080846;28;46968;-76
2021/08/26 04:11:57;;;;;;;;;9.75;7.00;;;;;;;;5080963;28;47829;-76
2021/08/26 04:14:22;;;;;;;;;11.50;10.00;;;;;;;;5080451;28;46990;-76
2021/08/26 04:16:48;;;;;;;;;9.25;7.00;;;;;;;;5080436;28;47151;-76
2021/08/26 04:19:13;;;;;;;;;6.25;6.00;;;;;;;;5080576;28;47015;-76
2021/08/26 04:21:38;;;;;;;;;8.00;8.00;;;;;;;;5080462;28;46942;-76
2021/08/26 04:24:04;;;;;;;;;7.00;6.25;;;;;;;;5080639;28;47112;-76
2021/08/26 04:26:30;;;;;;;;;8.25;7.00;;;;;;;;5080321;28;47088;-76
2021/08/26 04:28:55;;;;;;;;;9.00;7.00;;;;;;;;5080512;28;46872;-76
2021/08/26 04:31:20;;;;;;;;;9.50;8.00;;;;;;;;5080328;28;48034;-76
2021/08/26 04:33:46;;;;;;;;;8.75;6.75;;;;;;;;5080230;28;46912;-76
2021/08/26 04:36:11;;;;;;;;;7.25;6.50;;;;;;;;5080120;28;46959;-76
2021/08/26 04:38:37;;;;;;;;;6.50;6.50;;;;;;;;5080467;28;46730;-76
2021/08/26 04:41:02;;;;;;;;;8.75;6.75;;;;;;;;5080358;28;46862;-76
2021/08/26 04:43:27;;;;;;;;;8.00;6.75;;;;;;;;5080119;28;46933;-76
2021/08/26 04:45:53;;;;;;;;;5.00;5.00;;;;;;;;5080254;28;46750;-76
2021/08/26 04:48:18;;;;;;;;;6.00;5.00;;;;;;;;5080343;28;46990;-76
2021/08/26 04:50:43;;;;;;;;;6.75;6.25;;;;;;;;5079884;28;47811;-76
2021/08/26 04:53:08;;;;;;;;;6.25;5.00;;;;;;;;5080166;28;46996;-76
2021/08/26 04:55:34;;;;;;;;;7.00;4.50;;;;;;;;5079325;28;46894;-76
2021/08/26 04:57:59;;;;;;;;;6.00;4.75;;;;;;;;5079799;28;46769;-76
2021/08/26 05:00:24;;;;;;;;;5.00;4.50;;;;;;;;5080097;28;47978;-76
2021/08/26 05:02:50;;;;;;;;;5.00;4.00;;;;;;;;5079908;28;46987;-76
2021/08/26 05:05:15;;;;;;;;;7.00;4.00;;;;;;;;5079744;28;47012;-76
2021/08/26 05:07:40;;;;;;;;;5.00;3.50;;;;;;;;5080197;28;46989;-76
2021/08/26 05:10:06;;;;;;;;;4.00;4.00;;;;;;;;5079769;28;47609;-76
2021/08/26 05:12:32;;;;;;;;;4.00;4.00;;;;;;;;5079525;28;47027;-76
2021/08/26 05:14:57;;;;;;;;;3.25;3.25;;;;;;;;5079661;28;46927;-76
2021/08/26 05:17:22;;;;;;;;;4.00;4.00;;;;;;;;5061591;28;46959;-76
2021/08/26 05:19:48;;;;;;;;;3.25;3.00;;;;;;;;5061031;28;48675;-76
2021/08/26 05:22:13;;;;;;;;;3.75;3.00;;;;;;;;5079543;28;47132;-76
2021/08/26 05:24:39;;;;;;;;;2.00;2.00;;;;;;;;5079713;28;46915;-76
2021/08/26 05:27:04;;;;;;;;;3.00;2.50;;;;;;;;5079157;28;47016;-76
2021/08/26 05:29:29;;;;;;;;;1.50;1.50;;;;;;;;5061131;28;48534;-76
2021/08/26 05:31:54;;;;;;;;;3.50;3.50;;;;;;;;5079398;28;46789;-76
2021/08/26 05:34:20;;;;;;;;;3.50;2.00;;;;;;;;5079188;28;47125;-76
2021/08/26 05:36:45;;;;;;;;;2.00;2.00;;;;;;;;5079531;28;47320;-76
2021/08/26 05:39:10;;;;;;;;;2.50;2.50;;;;;;;;5060984;28;47638;-76
2021/08/26 05:41:36;;;;;;;;;5.25;2.00;;;;;;;;5079227;28;46953;-76
2021/08/26 05:44:01;;;;;;;;;2.75;2.25;;;;;;;;5079403;28;46948;-76
2021/08/26 05:46:26;;;;;;;;;3.00;1.25;;;;;;;;5079483;28;46853;-76
2021/08/26 05:48:52;;;;;;;;;2.00;2.00;;;;;;;;5078776;28;47767;-76
2021/08/26 05:51:17;;;;;;;;;2.00;1.00;;;;;;;;5078961;28;46840;-76
2021/08/26 05:53:42;;;;;;;;;2.50;2.50;;;;;;;;5060772;28;47074;-76
2021/08/26 05:56:08;;;;;;;;;1.00;1.00;;;;;;;;5079267;28;47008;-76
2021/08/26 05:58:33;;;;;;;;;3.00;2.25;;;;;;;;5078888;28;47949;-76
2021/08/26 06:00:58;;;;;;;;;3.00;2.00;;;;;;;;5078857;28;46905;-76
2021/08/26 06:03:24;;;;;;;;;2.25;2.00;;;;;;;;5060727;28;47066;-76
2021/08/26 06:05:49;;;;;;;;;3.25;1.75;;;;;;;;5078785;28;46819;-76
2021/08/26 06:08:14;;;;;;;;;3.00;2.00;;;;;;;;5079053;28;47200;-76
2021/08/26 06:10:39;;;;;;;;;1.00;1.00;;;;;;;;5078933;28;46997;-76
2021/08/26 06:13:05;;;;;;;;;2.25;2.25;;;;;;;;5060494;28;46996;-76
2021/08/26 06:15:30;;;;;;;;;2.00;2.00;;;;;;;;5078825;28;47014;-76
2021/08/26 06:17:56;;;;;;;;;3.50;2.75;;;;;;;;5078858;28;47738;-76
2021/08/26 06:20:21;;;;;;;;;2.00;2.00;;;;;;;;5078376;28;47100;-76
2021/08/26 06:22:47;;;;;;;;;2.00;2.00;;;;;;;;5060499;28;47045;-76
2021/08/26 06:25:13;;;;;;;;;2.00;2.00;;;;;;;;5078924;28;46899;-76
2021/08/26 06:27:38;;;;;;;;;2.00;2.00;;;;;;;;5078459;28;47020;-76
2021/08/26 06:30:05;;;;;;;;;1.75;1.75;;;;;;;;5078691;28;47080;-76
2021/08/26 06:32:30;;;;;;;;;3.00;2.00;;;;;;;;5078785;28;46789;-76
2021/08/26 06:34:57;;;;;;;;;2.00;2.00;;;;;;;;5078240;28;46893;-76
2021/08/26 06:37:23;;;;;;;;;3.75;2.25;;;;;;;;5060186;28;49685;-76
2021/08/26 06:39:48;;;;;;;;;2.00;2.00;;;;;;;;5078701;28;46823;-76
2021/08/26 06:42:13;;;;;;;;;1.75;1.75;;;;;;;;5078222;28;46892;-76
2021/08/26 06:44:39;;;;;;;;;1.50;1.50;;;;;;;;5078627;28;46731;-76
2021/08/26 06:47:05;;;;;;;;;1.50;1.50;;;;;;;;5059847;28;47284;-76
2021/08/26 06:49:30;;;;;;;;;2.75;2.00;;;;;;;;5059708;28;46960;-76
2021/08/26 06:51:55;;;;;;;;;3.00;1.00;;;;;;;;5078352;28;46935;-76
2021/08/26 06:54:21;;;;;;;;;3.00;1.25;;;;;;;;5078557;28;47098;-76
2021/08/26 06:56:46;;;;;;;;;2.75;1.00;;;;;;;;5078049;28;46983;-76
2021/08/26 06:59:11;;;;;;;;;1.00;1.00;;;;;;;;5059676;28;46984;-76
2021/08/26 07:01:36;;;;;;;;;2.75;2.00;;;;;;;;5078298;28;47110;-76
2021/08/26 07:04:02;;;;;;;;;1.50;1.50;;;;;;;;5078025;28;47310;-76
2021/08/26 07:06:28;;;;;;;;;2.00;2.00;;;;;;;;5078024;28;46993;-76
2021/08/26 07:08:54;;;;;;;;;1.25;1.25;;;;;;;;5059818;28;47107;-76
2021/08/26 07:11:19;;;;;;;;;1.50;1.50;;;;;;;;5059757;28;47118;-76
2021/08/26 07:13:44;;;;;;;;;2.00;2.00;;;;;;;;5059951;28;47078;-76
2021/08/26 07:16:10;;;;;;;;;3.00;1.75;;;;;;;;5077749;28;46912;-76
2021/08/26 07:18:35;;;;;;;;;2.00;2.00;;;;;;;;5077938;28;46906;-76
2021/08/26 07:21:00;;;;;;;;;2.25;1.25;;;;;;;;5080878;28;47004;-76
2021/08/26 07:23:26;;;;;;;;;4.25;2.50;;;;;;;;5081794;28;46774;-76
2021/08/26 07:25:51;;;;;;;;;1.00;1.00;;;;;;;;5057515;28;48440;-76
2021/08/26 07:28:16;;;;;;;;;2.00;2.00;;;;;;;;5073899;28;46764;-76
2021/08/26 07:30:42;;;;;;;;;2.00;1.00;;;;;;;;5081347;28;46926;-76
2021/08/26 07:33:07;;;;;;;;;1.50;1.50;;;;;;;;5063176;28;47157;-76
2021/08/26 07:35:32;;;;;;;;;0.50;0.50;;;;;;;;5080936;28;47773;-76
2021/08/26 07:37:58;;;;;;;;;2.25;1.25;;;;;;;;5063128;28;46814;-76
2021/08/26 07:40:23;;;;;;;;;1.25;0.50;;;;;;;;5062853;28;46892;-76
2021/08/26 07:42:49;;;;;;;;;3.25;2.50;;;;;;;;5081327;28;47318;-76
2021/08/26 07:45:14;;;;;;;;;2.00;2.00;;;;;;;;5081111;28;47900;-76
2021/08/26 07:47:40;;;;;;;;;2.50;0.75;;;;;;;;5062858;28;46989;-76
2021/08/26 07:50:06;;;;;;;;;0.75;0.75;;;;;;;;5080965;28;47104;-76
2021/08/26 07:52:31;;;;;;;;;3.00;2.00;;;;;;;;5081492;28;46853;-76
2021/08/26 07:54:57;;;;;;;;;2.25;1.75;;;;;;;;5080800;28;46986;-76
2021/08/26 07:57:22;;;;;;;;;2.25;2.00;;;;;;;;5062419;28;47120;-76
2021/08/26 07:59:47;;;;;;;;;1.25;1.25;;;;;;;;5080777;28;46868;-76
2021/08/26 08:02:13;;;;;;;;;3.50;2.00;;;;;;;;5062858;28;47194;-76
2021/08/26 08:04:38;;;;;;;;;2.50;2.50;;;;;;;;5080528;28;47939;-76
2021/08/26 08:07:03;;;;;;;;;3.00;1.50;;;;;;;;5080896;28;47029;-76
2021/08/26 08:09:29;;;;;;;;;3.00;2.25;;;;;;;;5080885;28;46919;-76
2021/08/26 08:11:54;;;;;;;;;3.25;2.75;;;;;;;;5080959;28;47022;-76
2021/08/26 08:14:19;;;;;;;;;4.00;2.75;;;;;;;;5080443;28;47095;-76
2021/08/26 08:16:44;;;;;;;;;4.25;3.00;;;;;;;;5080738;28;46931;-76
2021/08/26 08:19:10;;;;;;;;;3.00;3.00;;;;;;;;5080316;28;46793;-76
2021/08/26 08:21:35;;;;;;;;;6.00;1.75;;;;;;;;5080939;28;47011;-76
2021/08/26 08:24:00;;;;;;;;;3.25;3.00;;;;;;;;5080490;28;47707;-76
2021/08/26 08:26:26;;;;;;;;;3.00;3.00;;;;;;;;5080125;28;47018;-76
2021/08/26 08:28:52;;;;;;;;;3.00;2.75;;;;;;;;5080371;28;46918;-76
2021/08/26 08:31:17;;;;;;;;;4.00;2.50;;;;;;;;5079604;28;46879;-76
2021/08/26 08:33:44;;;;;;;;;3.25;2.75;;;;;;;;5079926;28;47009;-76
2021/08/26 08:36:09;;;;;;;;;3.75;3.25;;;;;;;;5080602;28;46825;-76
2021/08/26 08:38:34;;;;;;;;;6.00;4.50;;;;;;;;5080524;28;47025;-76
2021/08/26 08:41:00;;;;;;;;;3.50;3.25;;;;;;;;5080697;28;47021;-76
2021/08/26 08:43:25;;;;;;;;;3.50;3.00;;;;;;;;5080319;28;47764;-76
2021/08/26 08:45:52;;;;;;;;;4.25;4.00;;;;;;;;5080301;28;46790;-76
2021/08/26 08:48:18;;;;;;;;;4.50;3.00;;;;;;;;5080241;28;46940;-76
2021/08/26 08:50:44;;;;;;;;;3.00;3.00;;;;;;;;5080220;28;46889;-76
2021/08/26 08:53:13;;;;;;;;;4.00;3.00;;;;;;;;5061821;28;48982;-76
2021/08/26 08:55:39;;;;;;;;;4.75;4.25;;;;;;;;5080115;28;47051;-76
2021/08/26 08:58:05;;;;;;;;;2.50;2.25;;;;;;;;5079962;28;46990;-76
2021/08/26 09:00:30;;;;;;;;;4.00;3.00;;;;;;;;5080254;28;47011;-76
2021/08/26 09:02:55;;;;;;;;;4.00;3.50;;;;;;;;5079886;28;47725;-76
2021/08/26 09:05:22;;;;;;;;;3.75;2.50;;;;;;;;5079763;28;46976;-76
2021/08/26 09:07:47;;;;;;;;;2.25;2.00;;;;;;;;5080116;28;46936;-76
2021/08/26 09:10:13;;;;;;;;;4.75;4.00;;;;;;;;5080262;28;46932;-76
2021/08/26 09:12:44;;;;;;;;;2.50;1.00;;;;;;;;5079549;28;47069;-76
2021/08/26 09:15:12;;;;;;;;;3.00;2.50;;;;;;;;5079644;28;46828;-76
2021/08/26 09:17:37;;;;;;;;;8.25;4.00;;;;;;;;5079805;28;46935;-76
2021/08/26 09:20:03;;;;;;;;;3.25;3.00;;;;;;;;5079700;28;47211;-76
2021/08/26 09:22:28;;;;;;;;;3.00;2.00;;;;;;;;5079591;28;48063;-76
2021/08/26 09:24:54;;;;;;;;;3.00;2.00;;;;;;;;5079594;28;46919;-76
2021/08/26 09:27:31;;;;;;;;;2.00;2.00;;;;;;;;5066324;28;46865;-76
2021/08/26 09:29:57;;;;;;;;;4.00;3.00;;;;;;;;5061636;28;46856;-76
2021/08/26 09:32:31;;;;;;;;;3.00;2.75;;;;;;;;5079453;28;47622;-76
2021/08/26 09:35:07;;;;;;;;;4.25;2.75;;;;;;;;5079060;28;47240;-76
2021/08/26 09:37:38;;;;;;;;;3.00;2.00;;;;;;;;5079747;28;46935;-76
2021/08/26 09:40:04;;;;;;;;;2.50;2.00;;;;;;;;5061342;28;47190;-76
2021/08/26 09:42:29;;;;;;;;;3.00;3.00;;;;;;;;5078889;28;47295;-76
2021/08/26 09:45:12;;;;;;;;;3.00;3.00;;;;;;;;5079078;28;47179;-76
2021/08/26 09:47:57;;;;;;;;;3.00;2.00;;;;;;;;5061121;28;47105;-76
2021/08/26 09:50:34;;;;;;;;;2.00;2.00;;;;;;;;5060873;28;47067;-76
2021/08/26 09:52:59;;;;;;;;;2.50;2.00;;;;;;;;5079205;28;47093;-76
2021/08/26 09:55:25;;;;;;;;;3.50;2.75;;;;;;;;5079224;28;47099;-76
2021/08/26 09:58:10;;;;;;;;;2.75;2.75;;;;;;;;5078856;28;46802;-75
2021/08/26 10:00:35;;;;;;;;;3.75;2.00;;;;;;;;5079102;28;46789;-76
2021/08/26 10:03:00;;;;;;;;;2.50;1.25;;;;;;;;5079037;28;47917;-76
2021/08/26 10:05:26;;;;;;;;;3.00;3.00;;;;;;;;5078679;28;46900;-76
2021/08/26 10:07:52;;;;;;;;;2.25;2.00;;;;;;;;5060639;28;46826;-76
2021/08/26 10:10:17;;;;;;;;;4.25;3.50;;;;;;;;5079098;28;47201;-76
2021/08/26 10:12:43;;;;;;;;;2.00;2.00;;;;;;;;5078663;28;47928;-76
2021/08/26 10:15:09;;;;;;;;;3.00;3.00;;;;;;;;5078710;28;46896;-76
2021/08/26 10:17:35;;;;;;;;;1.00;1.00;;;;;;;;5078916;28;47055;-76
2021/08/26 10:20:00;;;;;;;;;8.50;6.50;;;;;;;;5078620;28;47060;-76
2021/08/26 10:22:26;;;;;;;;;2.00;1.00;;;;;;;;5078338;28;46982;-76
2021/08/26 10:24:51;;;;;;;;;6.00;6.00;;;;;;;;5078725;28;46969;-76
2021/08/26 10:27:18;;;;;;;;;2.00;1.00;;;;;;;;5065740;28;47144;-76
2021/08/26 10:29:45;;;;;;;;;1.00;1.00;;;;;;;;5079145;28;47094;-76
2021/08/26 10:32:14;;;;;;;;;1.25;1.00;;;;;;;;5060185;28;48516;-76
2021/08/26 10:34:39;;;;;;;;;1.00;1.00;;;;;;;;5078264;28;47046;-76
2021/08/26 10:37:18;;;;;;;;;1.00;1.00;;;;;;;;5060196;28;47111;-76
2021/08/26 10:39:44;;;;;;;;;3.00;1.25;;;;;;;;5078674;28;47067;-76
2021/08/26 10:42:22;;;;;;;;;0.75;0.75;;;;;;;;5078525;28;46986;-76
2021/08/26 10:45:06;;;;;;;;;3.25;2.00;;;;;;;;5078396;28;47004;-76
2021/08/26 10:47:47;;;;;;;;;2.00;1.00;;;;;;;;5060131;28;47134;-76
2021/08/26 10:50:19;;;;;;;;;1.00;0.50;;;;;;;;5078276;28;47089;-76
2021/08/26 10:52:53;;;;;;;;;1.00;1.00;;;;;;;;5078174;28;48038;-76
2021/08/26 10:55:41;;;;;;;;;3.50;1.00;;;;;;;;5058900;28;47812;-76
2021/08/26 10:58:18;;;;;;;;;1.25;1.25;;;;;;;;5077960;28;46905;-76
2021/08/26 11:00:44;;;;;;;;;1.00;1.00;;;;;;;;5078638;28;46924;-76
2021/08/26 11:03:10;;;;;;;;;3.50;2.00;;;;;;;;5077997;28;47800;-76
2021/08/26 11:05:36;;;;;;;;;1.00;1.00;;;;;;;;5077991;28;46834;-76
2021/08/26 11:08:22;;;;;;;;;4.00;3.00;;;;;;;;5059788;28;47169;-76
2021/08/26 11:10:47;;;;;;;;;3.00;3.00;;;;;;;;5063614;28;47237;-76
2021/08/26 11:13:29;;;;;;;;;5.25;3.25;;;;;;;;5077875;28;47948;-76
2021/08/26 11:15:55;;;;;;;;;2.00;1.00;;;;;;;;5077832;28;47144;-77
2021/08/26 11:18:39;;;;;;;;;3.00;2.00;;;;;;;;5059791;28;47055;-76
2021/08/26 11:21:04;;;;;;;;;1.25;1.25;;;;;;;;5077905;28;47089;-76
2021/08/26 11:23:43;;;;;;;;;1.25;1.00;;;;;;;;5077972;28;47030;-76
2021/08/26 11:26:40;;;;;;;;;3.00;2.25;;;;;;;;5077907;28;46711;-76
2021/08/26 11:29:17;;;;;;;;;6.00;5.75;;;;;;;;5077741;28;47070;-76
2021/08/26 11:32:03;;;;;;;;;2.50;1.75;;;;;;;;5078004;28;47228;-76
2021/08/26 11:34:32;;;;;;;;;4.50;3.00;;;;;;;;5076918;28;47885;-76
2021/08/26 11:36:58;;;;;;;;;2.50;2.00;;;;;;;;5077679;28;46987;-76
2021/08/26 11:39:23;;;;;;;;;3.00;3.00;;;;;;;;5077861;28;46794;-76
2021/08/26 11:41:49;;;;;;;;;3.50;2.00;;;;;;;;5077675;28;47130;-76
2021/08/26 11:44:14;;;;;;;;;4.75;3.00;;;;;;;;5077520;28;46971;-76
2021/08/26 11:46:40;;;;;;;;;4.00;3.00;;;;;;;;5077610;28;46936;-76
2021/08/26 11:49:05;;;;;;;;;6.00;6.00;;;;;;;;5077366;28;47030;-76
2021/08/26 11:51:31;;;;;;;;;15.00;12.00;;;;;;;;5077606;28;46896;-76
2021/08/26 11:54:09;;;;;;;;;14.00;12.25;;;;;;;;5077319;28;47081;-76
2021/08/26 11:56:41;;;;;;;;;7.00;6.00;;;;;;;;5058743;28;47759;-76
2021/08/26 11:59:21;;;;;;;;;6.50;4.25;;;;;;;;5077082;28;47139;-76
2021/08/26 12:01:46;;;;;;;;;7.50;5.50;;;;;;;;5077389;28;46790;-76
2021/08/26 12:04:11;;;;;;;;;8.75;8.00;;;;;;;;5076738;28;47827;-76
2021/08/26 12:06:37;;;;;;;;;3.25;2.50;;;;;;;;5061566;28;47921;-76
2021/08/26 12:09:02;;;;;;;;;4.50;3.00;;;;;;;;5080505;28;46757;-76
2021/08/26 12:11:27;;;;;;;;;5.50;5.00;;;;;;;;5062381;28;46834;-76
2021/08/26 12:13:56;;;;;;;;;4.00;3.00;;;;;;;;5080193;28;47110;-76
2021/08/26 12:16:28;;;;;;;;;4.00;3.00;;;;;;;;5080531;28;47050;-76
2021/08/26 12:18:54;;;;;;;;;3.75;2.25;;;;;;;;5080084;28;46860;-76
2021/08/26 12:21:19;;;;;;;;;2.25;1.25;;;;;;;;5080740;28;46885;-76
2021/08/26 12:23:47;;;;;;;;;2.00;1.75;;;;;;;;5080239;28;47691;-76
2021/08/26 12:26:14;;;;;;;;;2.00;2.00;;;;;;;;5071863;28;47081;-76
2021/08/26 12:28:44;;;;;;;;;3.00;3.00;;;;;;;;5076541;28;46939;-76
2021/08/26 12:31:10;;;;;;;;;3.50;2.00;;;;;;;;5080403;28;46750;-76
2021/08/26 12:33:37;;;;;;;;;7.50;4.25;;;;;;;;5061342;28;49455;-76
2021/08/26 12:36:03;;;;;;;;;3.75;3.75;;;;;;;;5080203;28;47043;-76
2021/08/26 12:38:39;;;;;;;;;4.00;2.25;;;;;;;;5080098;28;46987;-76
2021/08/26 12:41:15;;;;;;;;;3.00;3.00;;;;;;;;5080464;28;47136;-76
2021/08/26 12:43:42;;;;;;;;;4.75;3.00;;;;;;;;5061708;28;47207;-76
2021/08/26 12:46:08;;;;;;;;;4.50;4.50;;;;;;;;5080097;28;47090;-76
2021/08/26 12:48:38;;;;;;;;;2.00;2.00;;;;;;;;5061547;28;46888;-76
2021/08/26 12:51:03;;;;;;;;;4.25;4.25;;;;;;;;5080222;28;47116;-76
2021/08/26 12:53:29;;;;;;;;;4.75;4.00;;;;;;;;5079900;28;47753;-76
2021/08/26 12:55:57;;;;;;;;;4.00;4.00;;;;;;;;5079780;28;46899;-76
2021/08/26 12:58:22;;;;;;;;;5.50;3.50;;;;;;;;5066279;28;47111;-76
2021/08/26 13:00:48;;;;;;;;;7.00;5.00;;;;;;;;5080172;28;46795;-76
2021/08/26 13:03:13;;;;;;;;;4.00;4.00;;;;;;;;5079564;28;46842;-76
2021/08/26 13:05:49;;;;;;;;;2.50;0.50;;;;;;;;5079553;28;46800;-76
2021/08/26 13:08:14;;;;;;;;;4.00;3.00;;;;;;;;5061482;28;46797;-76
2021/08/26 13:10:40;;;;;;;;;5.50;4.75;;;;;;;;5061498;28;47213;-76
2021/08/26 13:13:13;;;;;;;;;4.75;2.75;;;;;;;;5079557;28;46994;-76
2021/08/26 13:15:39;;;;;;;;;6.75;4.50;;;;;;;;5079360;28;47152;-76
2021/08/26 13:18:04;;;;;;;;;2.75;2.75;;;;;;;;5078745;28;46841;-76
2021/08/26 13:20:30;;;;;;;;;4.00;2.75;;;;;;;;5079320;28;46820;-76
2021/08/26 13:22:55;;;;;;;;;4.00;3.00;;;;;;;;5079406;28;47027;-76
2021/08/26 13:25:21;;;;;;;;;5.50;4.00;;;;;;;;5078065;28;46924;-76
2021/08/26 13:27:46;;;;;;;;;3.00;3.00;;;;;;;;5049285;28;46948;-76
2021/08/26 13:30:14;;;;;;;;;3.00;3.00;;;;;;;;5079446;28;46892;-76
2021/08/26 13:32:39;;;;;;;;;3.25;3.25;;;;;;;;5079291;28;47806;-76
2021/08/26 13:35:09;;;;;;;;;5.25;3.50;;;;;;;;5078901;28;47074;-76
2021/08/26 13:37:35;;;;;;;;;4.00;4.00;;;;;;;;5079387;28;46940;-76
2021/08/26 13:40:00;;;;;;;;;5.75;4.00;;;;;;;;5061225;28;47067;-76
2021/08/26 13:42:26;;;;;;;;;4.00;4.00;;;;;;;;5079212;28;46968;-76
2021/08/26 13:44:51;;;;;;;;;3.75;3.50;;;;;;;;5079193;28;47077;-76
2021/08/26 13:47:17;;;;;;;;;5.00;3.75;;;;;;;;5060900;28;46853;-76
2021/08/26 13:49:42;;;;;;;;;4.25;3.00;;;;;;;;5079201;28;46995;-76
2021/08/26 13:52:07;;;;;;;;;8.50;8.50;;;;;;;;5079365;28;46936;-76
2021/08/26 13:54:33;;;;;;;;;4.00;3.00;;;;;;;;5060632;28;47476;-77
2021/08/26 13:56:58;;;;;;;;;13.50;8.75;;;;;;;;5060882;28;46966;-76
2021/08/26 13:59:23;;;;;;;;;10.25;6.00;;;;;;;;5079093;28;46990;-76
2021/08/26 14:01:50;;;;;;;;;8.00;5.00;;;;;;;;5060638;28;48309;-76
2021/08/26 14:04:15;;;;;;;;;9.00;5.00;;;;;;;;5078659;28;46829;-77
2021/08/26 14:06:40;;;;;;;;;3.25;3.00;;;;;;;;5079061;28;47100;-76
2021/08/26 14:09:06;;;;;;;;;4.75;4.75;;;;;;;;5078928;28;47088;-76
2021/08/26 14:11:31;;;;;;;;;6.50;6.50;;;;;;;;5078837;28;48069;-76
2021/08/26 14:13:56;;;;;;;;;6.00;6.00;;;;;;;;5078369;28;47362;-76
2021/08/26 14:16:22;;;;;;;;;7.00;4.75;;;;;;;;5078743;28;46860;-76
2021/08/26 14:18:48;;;;;;;;;6.00;4.25;;;;;;;;5078405;28;46896;-76
2021/08/26 14:21:13;;;;;;;;;8.50;6.00;;;;;;;;5078602;28;46810;-76
2021/08/26 14:23:38;;;;;;;;;5.00;4.50;;;;;;;;5078549;28;46817;-76
2021/08/26 14:26:04;;;;;;;;;5.75;5.00;;;;;;;;5060001;28;46833;-76
2021/08/26 14:28:30;;;;;;;;;4.75;4.25;;;;;;;;5078507;28;46793;-76
2021/08/26 14:30:55;;;;;;;;;7.75;5.00;;;;;;;;5078659;28;48181;-76
2021/08/26 14:33:21;;;;;;;;;5.75;5.25;;;;;;;;5078145;28;47012;-76
2021/08/26 14:35:47;;;;;;;;;3.25;3.00;;;;;;;;5078456;28;46990;-76
2021/08/26 14:38:13;;;;;;;;;4.50;3.75;;;;;;;;5078523;28;46974;-76